Berwyn, New York
Current Conditions -  °F | °C
As of 1:54 AM on Sunday 21 Dec 2014 (Local Time) from KSYR Reporting Station
Overcast Overcast  
Wind Chill: -7°   Ceiling: 2900
Heat Index: -4°   Visibility: 10mi
Dew Point: -5°   Wind: 5mph
Humidity: 92%   Direction: 110°ESE
Pressure: 30.29"   Gusts: NA
Location:  42.8894°N, 76.1084°W
Report Text: KSYR 210654Z 11004KT 10SM OVC029 M04/M05 A3029 RMK AO2 SLP259 T10391050 $
Loading
Personal Weather Stations






























Interactive Weather Map New forecast layout! Learn more

10-Day Weather Forecast

Advertisements
Track Severe Weather on mobile